createdAt,value
2022-10-30T00:00:11.874Z,59.18
2022-10-30T00:03:05.758Z,59.18
2022-10-30T00:05:41.613Z,59.29
2022-10-30T00:08:15.674Z,59.28
2022-10-30T00:10:50.508Z,59.25
2022-10-30T00:13:23.361Z,59.28
2022-10-30T00:15:57.411Z,59.38
2022-10-30T00:18:30.505Z,59.38
2022-10-30T00:21:07.827Z,59.42
2022-10-30T00:23:41.016Z,59.43
2022-10-30T00:26:15.241Z,59.27
2022-10-30T00:28:50.732Z,59.27
2022-10-30T00:31:25.882Z,59.40
2022-10-30T00:33:59.038Z,60.07
2022-10-30T00:36:33.331Z,60.38
2022-10-30T00:39:06.527Z,60.44
2022-10-30T00:41:41.848Z,59.85
2022-10-30T00:44:40.505Z,59.48
2022-10-30T00:47:18.136Z,59.31
2022-10-30T00:49:55.392Z,59.32
2022-10-30T00:52:29.658Z,59.51
2022-10-30T00:55:04.131Z,60.21
2022-10-30T00:57:36.911Z,59.74
2022-10-30T01:00:14.083Z,59.56
2022-10-30T01:02:47.781Z,59.51
2022-10-30T01:05:21.868Z,59.37
2022-10-30T01:07:53.993Z,59.47
2022-10-30T01:10:28.044Z,59.34
2022-10-30T01:13:05.933Z,59.26
2022-10-30T01:15:41.855Z,59.10
2022-10-30T01:18:24.386Z,59.16
2022-10-30T01:21:16.552Z,59.39
2022-10-30T01:24:02.365Z,59.65
2022-10-30T01:26:43.490Z,59.71
2022-10-30T01:29:28.254Z,59.68
2022-10-30T01:32:15.010Z,59.82
2022-10-30T01:34:51.613Z,59.83
2022-10-30T01:37:29.996Z,59.77
2022-10-30T01:40:07.952Z,59.68
2022-10-30T01:42:56.798Z,59.75
2022-10-30T01:45:46.990Z,59.69
2022-10-30T01:48:34.496Z,59.75
2022-10-30T01:51:13.214Z,59.72
2022-10-30T01:53:54.324Z,59.59
2022-10-30T01:56:33.609Z,59.49
2022-10-30T01:59:13.423Z,59.58
2022-10-30T02:01:48.088Z,59.55
2022-10-30T02:04:20.710Z,59.63
2022-10-30T02:06:53.757Z,59.60
2022-10-30T02:09:26.702Z,59.66
2022-10-30T02:12:01.215Z,59.71
2022-10-30T02:14:36.113Z,59.65
2022-10-30T02:17:10.073Z,59.71
2022-10-30T02:19:42.886Z,59.83
2022-10-30T02:22:16.886Z,60.13
2022-10-30T02:24:50.414Z,60.38
2022-10-30T02:27:26.955Z,60.55
2022-10-30T02:30:01.448Z,60.56
2022-10-30T02:32:35.880Z,60.68
2022-10-30T02:35:11.266Z,60.91
2022-10-30T02:37:43.190Z,60.94
2022-10-30T02:40:17.295Z,61.05
2022-10-30T02:42:55.004Z,61.24
2022-10-30T02:45:27.444Z,61.48
2022-10-30T02:48:06.133Z,61.61
2022-10-30T02:50:40.841Z,61.59
2022-10-30T02:53:12.654Z,61.61
2022-10-30T02:55:45.375Z,61.56
2022-10-30T02:58:19.887Z,61.56
2022-10-30T03:00:51.791Z,61.51
2022-10-30T03:03:24.266Z,61.52
2022-10-30T03:05:57.279Z,61.49
2022-10-30T03:08:30.383Z,61.43
2022-10-30T03:11:07.785Z,61.57
2022-10-30T03:13:42.754Z,61.54
2022-10-30T03:16:16.864Z,61.53
2022-10-30T03:18:52.116Z,61.35
2022-10-30T03:21:26.247Z,61.31
2022-10-30T03:23:59.350Z,61.27
2022-10-30T03:26:33.303Z,61.25
2022-10-30T03:29:05.529Z,61.42
2022-10-30T03:31:38.465Z,61.32
2022-10-30T03:34:12.603Z,61.30
2022-10-30T03:36:45.406Z,62.03
2022-10-30T03:39:18.631Z,62.46
2022-10-30T03:41:53.790Z,62.46
2022-10-30T03:44:27.564Z,62.35
2022-10-30T03:47:00.422Z,61.71
2022-10-30T03:49:34.060Z,61.71
2022-10-30T03:52:07.462Z,61.82
2022-10-30T03:54:41.986Z,61.58
2022-10-30T03:57:14.661Z,61.61
2022-10-30T03:59:48.069Z,61.61
2022-10-30T04:04:59.540Z,61.71
2022-10-30T04:07:34.059Z,61.81
2022-10-30T04:10:09.981Z,61.67
2022-10-30T04:12:44.145Z,61.55
2022-10-30T04:15:16.472Z,61.57
2022-10-30T04:17:53.119Z,61.98
2022-10-30T04:20:29.077Z,61.97
2022-10-30T04:23:02.935Z,61.65
2022-10-30T04:25:37.753Z,61.72
2022-10-30T04:28:10.001Z,61.71
2022-10-30T04:30:44.703Z,61.65
2022-10-30T04:33:17.712Z,61.83
2022-10-30T04:35:50.265Z,62.11
2022-10-30T04:38:23.035Z,62.20
2022-10-30T04:40:56.000Z,61.89
2022-10-30T04:43:29.234Z,61.81
2022-10-30T04:46:05.470Z,61.73
2022-10-30T04:48:37.725Z,61.67
2022-10-30T04:51:11.887Z,62.25
2022-10-30T04:53:48.542Z,62.75
2022-10-30T04:56:21.762Z,62.46
2022-10-30T04:58:57.999Z,62.73
2022-10-30T05:01:34.014Z,62.55
2022-10-30T05:04:09.936Z,62.20
2022-10-30T05:06:42.392Z,62.18
2022-10-30T05:09:16.169Z,62.14
2022-10-30T05:11:57.443Z,62.26
2022-10-30T05:14:34.998Z,62.15
2022-10-30T05:17:07.441Z,61.98
2022-10-30T05:19:41.219Z,61.93
2022-10-30T05:22:15.053Z,62.09
2022-10-30T05:24:48.336Z,61.93
2022-10-30T05:27:20.347Z,62.08
2022-10-30T05:29:53.123Z,62.21
2022-10-30T05:32:25.649Z,62.21
2022-10-30T05:35:01.107Z,62.04
2022-10-30T05:37:34.467Z,62.00
2022-10-30T05:40:09.258Z,62.00
2022-10-30T05:42:41.159Z,62.05
2022-10-30T05:45:15.499Z,62.90
2022-10-30T05:47:50.551Z,62.26
2022-10-30T05:50:22.788Z,62.67
2022-10-30T05:52:59.749Z,62.89
2022-10-30T05:55:33.404Z,62.60
2022-10-30T05:58:08.945Z,62.30
2022-10-30T06:00:43.077Z,61.92
2022-10-30T06:03:17.064Z,61.94
2022-10-30T06:05:52.029Z,62.00
2022-10-30T06:08:23.804Z,61.97
2022-10-30T06:10:58.697Z,61.99
2022-10-30T06:13:33.124Z,61.91
2022-10-30T06:16:08.818Z,61.88
2022-10-30T06:18:40.596Z,62.17
2022-10-30T06:21:13.685Z,62.61
2022-10-30T06:23:51.810Z,62.11
2022-10-30T06:26:26.243Z,61.93
2022-10-30T06:29:01.405Z,62.52
2022-10-30T06:31:35.089Z,63.03
2022-10-30T06:34:07.722Z,63.06
2022-10-30T06:36:41.005Z,62.22
2022-10-30T06:39:13.215Z,61.93
2022-10-30T06:41:46.852Z,61.86
2022-10-30T06:44:20.827Z,61.60
2022-10-30T06:46:57.491Z,61.55
2022-10-30T06:49:32.064Z,61.50
2022-10-30T06:52:05.759Z,61.49
2022-10-30T06:54:39.430Z,61.38
2022-10-30T06:57:17.738Z,61.30
2022-10-30T06:59:49.693Z,61.34
2022-10-30T07:02:25.855Z,61.40
2022-10-30T07:04:58.474Z,61.31
2022-10-30T07:07:31.317Z,61.23
2022-10-30T07:10:06.314Z,61.06
2022-10-30T07:12:38.759Z,60.94
2022-10-30T07:15:14.745Z,60.93
2022-10-30T07:17:55.978Z,60.96
2022-10-30T07:20:29.843Z,60.70
2022-10-30T07:23:07.658Z,60.74
2022-10-30T07:25:40.214Z,60.44
2022-10-30T07:28:12.127Z,61.10
2022-10-30T07:30:44.889Z,61.39
2022-10-30T07:33:19.736Z,61.32
2022-10-30T07:35:56.547Z,60.54
2022-10-30T07:38:30.211Z,60.15
2022-10-30T07:41:03.921Z,59.83
2022-10-30T07:43:38.012Z,60.50
2022-10-30T07:46:09.895Z,60.43
2022-10-30T07:48:47.532Z,60.50
2022-10-30T07:51:21.426Z,60.53
2022-10-30T07:53:56.036Z,59.89
2022-10-30T07:56:56.305Z,59.53
2022-10-30T07:59:30.910Z,59.75
2022-10-30T08:02:39.104Z,59.51
2022-10-30T08:05:48.282Z,58.91
2022-10-30T08:08:47.334Z,58.58
2022-10-30T08:11:32.133Z,58.29
2022-10-30T08:14:37.537Z,58.04
2022-10-30T08:17:17.509Z,57.91
2022-10-30T08:19:58.344Z,57.77
2022-10-30T08:22:59.640Z,57.73
2022-10-30T08:25:36.719Z,57.95
2022-10-30T08:28:11.937Z,58.06
2022-10-30T08:38:06.213Z,57.42
2022-10-30T08:40:40.932Z,57.52
2022-10-30T08:43:15.042Z,57.80
2022-10-30T08:45:47.975Z,57.59
2022-10-30T08:48:21.216Z,57.31
2022-10-30T08:50:57.050Z,57.62
2022-10-30T08:53:29.969Z,57.46
2022-10-30T08:56:05.884Z,57.43
2022-10-30T08:58:39.586Z,57.48
2022-10-30T09:01:14.474Z,57.29
2022-10-30T09:03:48.571Z,57.09
2022-10-30T09:06:21.925Z,56.89
2022-10-30T09:08:54.357Z,56.91
2022-10-30T09:11:27.388Z,56.91
2022-10-30T09:14:02.510Z,56.89
2022-10-30T09:16:37.285Z,56.69
2022-10-30T09:19:09.141Z,56.54
2022-10-30T09:21:42.974Z,56.59
2022-10-30T09:24:16.825Z,56.46
2022-10-30T09:26:53.537Z,56.29
2022-10-30T09:29:56.557Z,56.17
2022-10-30T09:33:22.425Z,56.22
2022-10-30T09:36:23.729Z,56.16
2022-10-30T09:39:01.088Z,55.98
2022-10-30T09:42:47.503Z,55.97
2022-10-30T09:45:30.914Z,55.61
2022-10-30T09:48:20.731Z,55.41
2022-10-30T09:50:59.497Z,55.18
2022-10-30T09:53:35.369Z,54.64
2022-10-30T09:56:11.552Z,54.41
2022-10-30T09:58:49.712Z,54.28
2022-10-30T10:01:27.666Z,54.35
2022-10-30T10:04:07.213Z,54.10
2022-10-30T10:06:45.345Z,53.80
2022-10-30T10:09:23.734Z,53.69
2022-10-30T10:11:59.520Z,53.56
2022-10-30T10:14:34.175Z,53.57
2022-10-30T10:17:11.821Z,53.61
2022-10-30T10:19:55.490Z,53.34
2022-10-30T10:22:39.083Z,52.75
2022-10-30T10:25:16.030Z,52.89
2022-10-30T10:27:57.762Z,52.56
2022-10-30T10:30:35.593Z,52.14
2022-10-30T10:33:30.147Z,51.74
2022-10-30T10:36:11.512Z,51.50
2022-10-30T10:39:07.645Z,51.82
2022-10-30T10:41:55.928Z,51.02
2022-10-30T10:44:36.659Z,50.47
2022-10-30T10:47:32.438Z,50.26
2022-10-30T10:50:18.699Z,50.14
2022-10-30T10:52:54.926Z,49.90
2022-10-30T10:55:30.458Z,49.30
2022-10-30T10:58:11.689Z,48.74
2022-10-30T11:00:45.663Z,48.33
2022-10-30T11:03:26.292Z,48.21
2022-10-30T11:06:00.992Z,47.69
2022-10-30T11:08:35.470Z,47.18
2022-10-30T11:11:10.859Z,47.09
2022-10-30T11:13:46.869Z,46.77
2022-10-30T11:16:26.865Z,46.47
2022-10-30T11:19:01.587Z,46.37
2022-10-30T11:21:36.532Z,46.26
2022-10-30T11:24:29.466Z,46.00
2022-10-30T11:27:26.042Z,45.79
2022-10-30T11:30:05.773Z,45.61
2022-10-30T11:32:39.891Z,45.43
2022-10-30T11:35:18.917Z,45.26
2022-10-30T11:37:52.810Z,45.36
2022-10-30T11:40:27.008Z,45.01
2022-10-30T11:43:01.575Z,44.92
2022-10-30T11:45:43.290Z,44.93
2022-10-30T11:48:24.332Z,44.83
2022-10-30T11:51:01.591Z,44.50
2022-10-30T11:53:40.110Z,44.42
2022-10-30T11:56:18.334Z,44.18
2022-10-30T11:58:53.309Z,44.12
2022-10-30T12:01:28.558Z,43.64
2022-10-30T12:04:17.452Z,43.63
2022-10-30T12:06:54.965Z,43.01
2022-10-30T12:09:31.120Z,42.92
2022-10-30T12:12:06.757Z,42.77
2022-10-30T12:14:39.508Z,42.64
2022-10-30T12:17:11.537Z,42.39
2022-10-30T12:19:50.405Z,41.90
2022-10-30T12:22:31.922Z,41.47
2022-10-30T12:25:07.997Z,41.52
2022-10-30T12:27:40.759Z,41.22
2022-10-30T12:30:20.443Z,41.23
2022-10-30T12:32:57.571Z,41.00
2022-10-30T12:35:41.156Z,40.81
2022-10-30T12:38:18.425Z,40.47
2022-10-30T12:41:02.027Z,40.09
2022-10-30T12:43:36.602Z,39.76
2022-10-30T12:46:23.812Z,39.51
2022-10-30T12:48:59.812Z,39.72
2022-10-30T12:51:36.742Z,39.42
2022-10-30T12:54:17.259Z,39.08
2022-10-30T12:56:57.077Z,38.53
2022-10-30T12:59:42.673Z,38.43
2022-10-30T13:02:20.006Z,38.22
2022-10-30T13:04:57.959Z,38.26
2022-10-30T13:07:35.121Z,37.88
2022-10-30T13:10:18.220Z,37.38
2022-10-30T13:12:58.020Z,37.42
2022-10-30T13:15:34.979Z,37.08
2022-10-30T13:18:19.530Z,37.05
2022-10-30T13:21:03.869Z,37.05
2022-10-30T13:23:44.485Z,36.92
2022-10-30T13:26:23.149Z,36.91
2022-10-30T13:29:00.636Z,37.14
2022-10-30T13:31:38.985Z,37.04
2022-10-30T13:34:27.942Z,37.05
2022-10-30T13:37:07.119Z,37.11
2022-10-30T13:39:43.329Z,37.17
2022-10-30T13:42:26.839Z,37.10
2022-10-30T13:45:06.307Z,37.12
2022-10-30T13:47:50.444Z,37.21
2022-10-30T13:50:33.688Z,37.20
2022-10-30T13:53:08.582Z,37.35
2022-10-30T13:55:43.336Z,37.55
2022-10-30T13:58:24.728Z,37.66
2022-10-30T14:01:04.758Z,37.88
2022-10-30T14:03:50.117Z,37.87
2022-10-30T14:06:30.300Z,37.91
2022-10-30T14:09:12.176Z,37.95
2022-10-30T14:11:44.237Z,37.88
2022-10-30T14:14:33.185Z,38.08
2022-10-30T14:17:13.998Z,38.24
2022-10-30T14:20:20.617Z,38.51
2022-10-30T14:23:16.192Z,38.80
2022-10-30T14:25:49.092Z,39.02
2022-10-30T14:28:26.043Z,38.96
2022-10-30T14:31:07.320Z,39.21
2022-10-30T14:33:50.854Z,39.44
2022-10-30T14:36:25.151Z,39.60
2022-10-30T14:39:24.658Z,39.76
2022-10-30T14:42:04.052Z,40.00
2022-10-30T14:45:02.663Z,40.29
2022-10-30T14:47:53.300Z,40.41
2022-10-30T14:50:48.560Z,40.64
2022-10-30T14:53:31.621Z,40.79
2022-10-30T14:56:10.668Z,41.01
2022-10-30T14:58:47.656Z,41.14
2022-10-30T15:01:37.911Z,41.41
2022-10-30T15:04:22.749Z,41.46
2022-10-30T15:06:59.462Z,41.62
2022-10-30T15:09:45.354Z,41.70
2022-10-30T15:12:36.666Z,42.27
2022-10-30T15:15:16.536Z,42.72
2022-10-30T15:17:50.657Z,42.98
2022-10-30T15:20:24.839Z,43.14
2022-10-30T15:23:01.239Z,43.40
2022-10-30T15:25:37.049Z,43.43
2022-10-30T15:28:14.456Z,43.70
2022-10-30T15:31:03.692Z,43.97
2022-10-30T15:33:39.504Z,44.02
2022-10-30T15:36:20.614Z,44.22
2022-10-30T15:39:12.728Z,44.42
2022-10-30T15:41:55.760Z,44.61
2022-10-30T15:44:31.241Z,44.77
2022-10-30T15:47:05.485Z,44.81
2022-10-30T15:49:39.201Z,44.81
2022-10-30T15:52:19.178Z,45.15
2022-10-30T15:54:55.563Z,45.66
2022-10-30T15:58:01.142Z,45.95
2022-10-30T16:00:25.441Z,46.08
2022-10-30T16:03:07.174Z,46.30
2022-10-30T16:05:38.991Z,46.45
2022-10-30T16:08:17.604Z,46.65
2022-10-30T16:10:51.027Z,46.79
2022-10-30T16:13:26.675Z,46.75
2022-10-30T16:15:59.759Z,46.59
2022-10-30T16:18:37.186Z,46.64
2022-10-30T16:21:14.130Z,46.67
2022-10-30T16:23:51.432Z,46.78
2022-10-30T16:26:33.744Z,46.90
2022-10-30T16:29:17.107Z,46.99
2022-10-30T16:31:52.262Z,47.06
2022-10-30T16:34:32.339Z,47.24
2022-10-30T16:37:05.114Z,47.36
2022-10-30T16:39:38.430Z,47.35
2022-10-30T16:42:22.314Z,47.44
2022-10-30T16:44:59.351Z,47.51
2022-10-30T16:47:35.121Z,47.63
2022-10-30T16:50:12.016Z,47.79
2022-10-30T16:52:46.891Z,48.30
2022-10-30T16:55:23.182Z,48.62
2022-10-30T16:57:58.351Z,48.43
2022-10-30T17:00:36.865Z,48.34
2022-10-30T17:03:12.596Z,48.41
2022-10-30T17:05:47.545Z,48.58
2022-10-30T17:08:36.903Z,48.63
2022-10-30T17:11:17.334Z,48.78
2022-10-30T17:14:04.772Z,49.00
2022-10-30T17:16:38.685Z,49.04
2022-10-30T17:19:48.469Z,49.11
2022-10-30T17:22:23.225Z,49.20
2022-10-30T17:24:57.881Z,49.44
2022-10-30T17:27:46.580Z,49.50
2022-10-30T17:30:39.093Z,49.52
2022-10-30T17:33:33.317Z,49.71
2022-10-30T17:36:09.875Z,49.60
2022-10-30T17:38:42.120Z,49.74
2022-10-30T17:41:16.891Z,49.92
2022-10-30T17:43:53.141Z,50.02
2022-10-30T17:46:26.637Z,50.06
2022-10-30T17:49:05.532Z,50.18
2022-10-30T17:51:40.861Z,50.38
2022-10-30T17:54:17.958Z,50.37
2022-10-30T17:56:52.626Z,50.45
2022-10-30T17:59:27.830Z,50.50
2022-10-30T18:02:02.217Z,50.59
2022-10-30T18:04:35.031Z,50.90
2022-10-30T18:07:08.430Z,50.98
2022-10-30T18:09:41.036Z,51.09
2022-10-30T18:12:16.722Z,51.25
2022-10-30T18:14:48.942Z,51.23
2022-10-30T18:17:22.931Z,51.29
2022-10-30T18:19:55.333Z,51.49
2022-10-30T18:22:28.498Z,51.62
2022-10-30T18:25:02.448Z,51.58
2022-10-30T18:27:35.192Z,51.52
2022-10-30T18:30:10.102Z,51.56
2022-10-30T18:32:42.953Z,51.53
2022-10-30T18:35:27.190Z,52.03
2022-10-30T18:38:02.564Z,52.13
2022-10-30T18:40:35.770Z,52.49
2022-10-30T18:43:12.781Z,52.35
2022-10-30T18:45:44.863Z,52.12
2022-10-30T18:48:20.316Z,52.06
2022-10-30T18:50:53.983Z,52.03
2022-10-30T18:53:34.997Z,52.16
2022-10-30T18:56:12.793Z,52.27
2022-10-30T18:58:44.733Z,52.35
2022-10-30T19:01:19.044Z,52.43
2022-10-30T19:03:51.741Z,52.53
2022-10-30T19:06:26.946Z,52.67
2022-10-30T19:09:01.201Z,52.84
2022-10-30T19:11:33.263Z,52.95
2022-10-30T19:14:06.930Z,52.99
2022-10-30T19:16:39.497Z,52.98
2022-10-30T19:19:15.241Z,52.98
2022-10-30T19:21:50.151Z,52.86
2022-10-30T19:24:23.319Z,52.94
2022-10-30T19:26:57.886Z,53.07
2022-10-30T19:29:31.621Z,53.55
2022-10-30T19:32:04.334Z,53.81
2022-10-30T19:34:45.998Z,53.89
2022-10-30T19:37:19.746Z,54.12
2022-10-30T19:39:51.975Z,54.12
2022-10-30T19:42:24.201Z,53.75
2022-10-30T19:44:56.717Z,53.62
2022-10-30T19:47:30.000Z,53.60
2022-10-30T19:50:02.390Z,53.81
2022-10-30T19:52:35.041Z,53.91
2022-10-30T19:55:09.777Z,53.93
2022-10-30T19:57:42.372Z,53.97
2022-10-30T20:00:19.969Z,54.02
2022-10-30T20:02:53.486Z,54.18
2022-10-30T20:05:28.613Z,54.24
2022-10-30T20:08:03.847Z,54.30
2022-10-30T20:10:39.070Z,54.32
2022-10-30T20:13:15.776Z,54.27
2022-10-30T20:15:47.835Z,54.32
2022-10-30T20:18:30.530Z,54.41
2022-10-30T20:21:07.472Z,54.38
2022-10-30T20:23:42.435Z,54.55
2022-10-30T20:26:23.649Z,54.80
2022-10-30T20:28:56.831Z,54.99
2022-10-30T20:31:29.501Z,55.00
2022-10-30T20:34:03.897Z,54.97
2022-10-30T20:36:40.810Z,54.90
2022-10-30T20:39:14.508Z,54.91
2022-10-30T20:41:47.257Z,55.04
2022-10-30T20:44:19.673Z,55.15
2022-10-30T20:46:55.352Z,55.22
2022-10-30T20:49:28.558Z,55.22
2022-10-30T20:52:02.720Z,55.21
2022-10-30T20:54:35.888Z,55.21
2022-10-30T20:57:09.924Z,55.28
2022-10-30T20:59:44.240Z,55.24
2022-10-30T21:02:19.739Z,55.28
2022-10-30T21:04:52.292Z,55.31
2022-10-30T21:07:26.889Z,55.35
2022-10-30T21:09:58.693Z,55.39
2022-10-30T21:12:35.422Z,55.49
2022-10-30T21:15:09.747Z,55.52
2022-10-30T21:17:42.765Z,55.61
2022-10-30T21:20:15.617Z,55.57
2022-10-30T21:22:48.345Z,55.56
2022-10-30T21:25:21.508Z,55.55
2022-10-30T21:27:53.335Z,55.67
2022-10-30T21:30:27.733Z,55.79
2022-10-30T21:33:04.211Z,55.95
2022-10-30T21:35:37.649Z,56.07
2022-10-30T21:38:11.489Z,56.11
2022-10-30T21:40:48.656Z,56.08
2022-10-30T21:43:23.247Z,55.98
2022-10-30T21:45:57.714Z,55.99
2022-10-30T21:48:30.350Z,56.13
2022-10-30T21:51:10.901Z,56.30
2022-10-30T21:53:46.912Z,56.34
2022-10-30T21:56:21.471Z,56.25
2022-10-30T21:58:59.656Z,56.25
2022-10-30T22:01:34.993Z,56.22
2022-10-30T22:04:20.094Z,56.22
2022-10-30T22:06:56.517Z,56.26
2022-10-30T22:09:31.241Z,56.17
2022-10-30T22:12:05.121Z,56.19
2022-10-30T22:14:38.741Z,56.24
2022-10-30T22:17:11.117Z,56.21
2022-10-30T22:19:46.361Z,56.28
2022-10-30T22:22:21.685Z,56.26
2022-10-30T22:24:54.455Z,56.27
2022-10-30T22:27:26.861Z,56.32
2022-10-30T22:30:01.050Z,56.87
2022-10-30T22:32:33.581Z,57.15
2022-10-30T22:35:11.279Z,57.30
2022-10-30T22:37:43.799Z,57.37
2022-10-30T22:40:18.222Z,57.48
2022-10-30T22:42:50.817Z,57.58
2022-10-30T22:45:25.242Z,57.62
2022-10-30T22:47:58.582Z,57.25
2022-10-30T22:50:30.983Z,57.52
2022-10-30T22:53:05.157Z,57.19
2022-10-30T22:55:38.692Z,57.11
2022-10-30T22:58:11.111Z,57.59
2022-10-30T23:00:48.785Z,57.68
2022-10-30T23:03:20.730Z,57.28
2022-10-30T23:05:59.750Z,57.56
2022-10-30T23:08:33.925Z,57.72
2022-10-30T23:11:09.719Z,57.65
2022-10-30T23:13:45.502Z,57.25
2022-10-30T23:16:18.868Z,56.80
2022-10-30T23:18:53.144Z,56.58
2022-10-30T23:21:27.196Z,56.56
2022-10-30T23:24:02.970Z,56.68
2022-10-30T23:26:37.936Z,56.65
2022-10-30T23:29:10.684Z,56.58
2022-10-30T23:31:46.382Z,56.56
2022-10-30T23:34:19.585Z,56.60
2022-10-30T23:36:56.375Z,56.61
2022-10-30T23:39:34.918Z,56.51
2022-10-30T23:42:09.362Z,56.47
2022-10-30T23:44:42.078Z,56.45
2022-10-30T23:47:14.050Z,56.50
2022-10-30T23:49:48.119Z,56.55
2022-10-30T23:52:22.589Z,56.56
2022-10-30T23:54:57.924Z,56.67
2022-10-30T23:57:33.263Z,56.71
